createdAt,value
2022-12-15T00:00:18.090Z,24.50
2022-12-15T00:03:04.077Z,23.50
2022-12-15T00:05:50.114Z,25.87
2022-12-15T00:08:36.000Z,24.73
2022-12-15T00:11:22.671Z,22.27
2022-12-15T00:14:08.811Z,21.57
2022-12-15T00:16:54.032Z,20.37
2022-12-15T00:19:40.129Z,17.93
2022-12-15T00:22:26.118Z,18.97
2022-12-15T00:25:11.527Z,21.00
2022-12-15T00:27:56.705Z,19.93
2022-12-15T00:30:42.056Z,22.70
2022-12-15T00:33:31.401Z,21.47
2022-12-15T00:36:18.299Z,21.10
2022-12-15T00:38:46.009Z,21.87
2022-12-15T00:41:15.141Z,19.63
2022-12-15T00:43:41.925Z,21.47
2022-12-15T00:46:27.717Z,18.30
2022-12-15T00:48:55.575Z,19.80
2022-12-15T00:51:22.841Z,17.00
2022-12-15T00:54:11.869Z,19.27
2022-12-15T00:57:00.593Z,18.20
2022-12-15T00:59:45.949Z,17.43
2022-12-15T01:02:31.275Z,23.03
2022-12-15T01:05:16.643Z,19.70
2022-12-15T01:08:01.835Z,23.30
2022-12-15T01:10:47.221Z,25.43
2022-12-15T01:13:32.767Z,22.87
2022-12-15T01:16:18.698Z,24.00
2022-12-15T01:19:04.043Z,27.60
2022-12-15T01:21:32.120Z,24.07
2022-12-15T01:23:58.793Z,27.07
2022-12-15T01:26:25.793Z,28.53
2022-12-15T01:28:52.489Z,27.93
2022-12-15T01:31:19.651Z,27.57
2022-12-15T01:33:46.329Z,27.77
2022-12-15T01:36:13.115Z,24.87
2022-12-15T01:38:40.622Z,34.83
2022-12-15T01:41:10.997Z,31.83
2022-12-15T01:43:41.056Z,29.17
2022-12-15T01:46:22.231Z,29.37
2022-12-15T01:48:59.969Z,31.70
2022-12-15T01:51:34.289Z,34.23
2022-12-15T01:54:11.004Z,30.10
2022-12-15T01:56:42.850Z,34.70
2022-12-15T01:59:15.250Z,30.53
2022-12-15T02:01:42.661Z,34.90
2022-12-15T02:04:11.241Z,34.10
2022-12-15T02:06:37.966Z,38.30
2022-12-15T02:09:05.899Z,31.77
2022-12-15T02:12:02.771Z,35.03
2022-12-15T02:15:06.895Z,32.43
2022-12-15T02:18:04.334Z,39.33
2022-12-15T02:20:52.568Z,40.53
2022-12-15T02:23:34.645Z,40.63
2022-12-15T02:26:30.084Z,40.13
2022-12-15T02:29:13.293Z,39.70
2022-12-15T02:31:52.501Z,40.83
2022-12-15T02:34:45.245Z,41.43
2022-12-15T02:37:22.641Z,39.37
2022-12-15T02:39:49.450Z,35.20
2022-12-15T02:42:16.599Z,41.57
2022-12-15T02:44:57.729Z,39.57
2022-12-15T02:47:24.869Z,36.10
2022-12-15T02:50:22.695Z,41.57
2022-12-15T02:53:43.513Z,39.80
2022-12-15T02:56:20.721Z,41.67
2022-12-15T02:59:03.186Z,45.93
2022-12-15T03:01:49.934Z,44.70
2022-12-15T03:04:18.153Z,45.37
2022-12-15T03:06:45.033Z,49.83
2022-12-15T03:09:12.576Z,50.20
2022-12-15T03:11:40.443Z,51.70
2022-12-15T03:14:07.155Z,52.03
2022-12-15T03:16:34.606Z,50.30
2022-12-15T03:19:01.374Z,50.07
2022-12-15T03:21:28.221Z,51.83
2022-12-15T03:23:55.359Z,49.67
2022-12-15T03:26:22.110Z,53.50
2022-12-15T03:28:48.811Z,49.87
2022-12-15T03:31:15.653Z,51.20
2022-12-15T03:33:43.109Z,46.87
2022-12-15T03:36:10.287Z,47.33
2022-12-15T03:38:37.055Z,50.50
2022-12-15T03:41:03.797Z,48.93
2022-12-15T03:43:30.928Z,51.70
2022-12-15T03:45:58.526Z,52.57
2022-12-15T03:48:25.520Z,53.03
2022-12-15T03:50:52.190Z,54.50
2022-12-15T03:53:18.947Z,53.97
2022-12-15T03:55:45.664Z,55.87
2022-12-15T03:58:13.162Z,50.60
2022-12-15T04:00:40.293Z,59.97
2022-12-15T04:03:07.167Z,51.67
2022-12-15T04:05:35.336Z,49.73
2022-12-15T04:08:02.488Z,51.33
2022-12-15T04:10:34.653Z,55.00
2022-12-15T04:13:07.374Z,54.03
2022-12-15T04:15:35.748Z,60.53
2022-12-15T04:18:05.947Z,56.90
2022-12-15T04:20:33.223Z,55.00
2022-12-15T04:23:00.366Z,59.43
2022-12-15T04:25:46.193Z,57.43
2022-12-15T04:28:32.565Z,56.87
2022-12-15T04:31:36.761Z,58.67
2022-12-15T04:34:24.886Z,58.23
2022-12-15T04:37:12.735Z,58.93
2022-12-15T04:40:00.925Z,52.10
2022-12-15T04:42:47.505Z,62.87
2022-12-15T04:45:35.846Z,52.03
2022-12-15T04:48:20.809Z,53.97
2022-12-15T04:51:06.528Z,51.83
2022-12-15T04:53:51.742Z,51.87
2022-12-15T04:56:36.973Z,56.00
2022-12-15T04:59:22.589Z,53.87
2022-12-15T05:02:07.822Z,54.10
2022-12-15T05:04:53.631Z,50.27
2022-12-15T05:07:39.327Z,50.20
2022-12-15T05:10:26.005Z,52.03
2022-12-15T05:13:11.339Z,55.83
2022-12-15T05:15:57.089Z,55.50
2022-12-15T05:18:43.086Z,54.93
2022-12-15T05:21:28.261Z,56.77
2022-12-15T05:24:13.969Z,52.47
2022-12-15T05:26:59.165Z,52.30
2022-12-15T05:29:44.401Z,56.10
2022-12-15T05:32:13.641Z,47.30
2022-12-15T05:34:40.645Z,49.73
2022-12-15T05:37:07.702Z,49.90
2022-12-15T05:39:34.518Z,47.10
2022-12-15T05:42:01.454Z,48.20
2022-12-15T05:44:29.473Z,48.60
2022-12-15T05:46:56.303Z,49.70
2022-12-15T05:49:23.453Z,49.47
2022-12-15T05:51:50.528Z,45.57
2022-12-15T05:54:19.685Z,44.33
2022-12-15T05:56:50.446Z,42.87
2022-12-15T05:59:19.220Z,39.93
2022-12-15T06:01:46.432Z,39.83
2022-12-15T06:04:14.600Z,44.37
2022-12-15T06:06:41.549Z,40.53
2022-12-15T06:09:09.251Z,42.13
2022-12-15T06:11:37.420Z,41.07
2022-12-15T06:14:04.288Z,43.57
2022-12-15T06:16:31.154Z,41.40
2022-12-15T06:19:01.019Z,47.73
2022-12-15T06:21:31.500Z,47.53
2022-12-15T06:23:58.829Z,40.43
2022-12-15T06:26:28.699Z,48.23
2022-12-15T06:28:58.789Z,48.23
2022-12-15T06:31:26.695Z,43.80
2022-12-15T06:34:00.890Z,49.23
2022-12-15T06:36:28.843Z,46.63
2022-12-15T06:38:58.812Z,44.63
2022-12-15T06:41:25.528Z,48.97
2022-12-15T06:43:55.910Z,44.47
2022-12-15T06:46:24.282Z,45.57
2022-12-15T06:48:51.576Z,52.47
2022-12-15T06:51:18.874Z,54.70
2022-12-15T06:53:49.059Z,46.83
2022-12-15T06:56:30.718Z,45.33
2022-12-15T06:59:00.391Z,47.27
2022-12-15T07:01:28.277Z,45.07
2022-12-15T07:03:55.907Z,49.20
2022-12-15T07:06:23.184Z,45.67
2022-12-15T07:08:53.103Z,50.20
2022-12-15T07:11:21.256Z,41.60
2022-12-15T07:13:53.156Z,45.73
2022-12-15T07:16:21.854Z,44.67
2022-12-15T07:18:49.534Z,48.63
2022-12-15T07:21:16.957Z,46.67
2022-12-15T07:24:00.884Z,47.13
2022-12-15T07:26:29.303Z,43.63
2022-12-15T07:28:56.247Z,50.53
2022-12-15T07:31:23.703Z,45.23
2022-12-15T07:33:52.703Z,45.80
2022-12-15T07:36:19.819Z,47.17
2022-12-15T07:38:50.079Z,49.73
2022-12-15T07:41:18.664Z,54.80
2022-12-15T07:43:47.120Z,42.20
2022-12-15T07:46:14.654Z,58.40
2022-12-15T07:48:41.536Z,63.40
2022-12-15T07:51:17.116Z,53.70
2022-12-15T07:53:47.017Z,53.40
2022-12-15T07:56:14.756Z,52.03
2022-12-15T07:58:42.570Z,59.93
2022-12-15T08:01:12.649Z,53.60
2022-12-15T08:03:40.405Z,56.90
2022-12-15T08:06:13.718Z,57.70
2022-12-15T08:08:43.756Z,52.00
2022-12-15T08:11:14.775Z,54.73
2022-12-15T08:16:32.138Z,46.93
2022-12-15T08:19:00.076Z,55.47
2022-12-15T08:21:27.755Z,52.87
2022-12-15T08:23:55.065Z,52.53
2022-12-15T08:26:26.794Z,53.00
2022-12-15T08:29:11.894Z,58.73
2022-12-15T08:31:45.164Z,56.63
2022-12-15T08:34:12.860Z,55.13
2022-12-15T08:36:39.616Z,51.20
2022-12-15T08:39:06.339Z,51.50
2022-12-15T08:41:33.658Z,55.87
2022-12-15T08:44:01.743Z,59.80
2022-12-15T08:46:33.999Z,58.20
2022-12-15T08:49:02.683Z,55.93
2022-12-15T08:51:31.508Z,52.07
2022-12-15T08:54:00.372Z,48.13
2022-12-15T08:56:28.253Z,45.63
2022-12-15T08:59:02.635Z,51.80
2022-12-15T09:01:32.462Z,61.67
2022-12-15T09:04:01.671Z,61.57
2022-12-15T09:06:34.622Z,54.37
2022-12-15T09:09:05.888Z,55.57
2022-12-15T09:11:33.092Z,57.00
2022-12-15T09:14:00.556Z,53.07
2022-12-15T09:16:28.371Z,53.73
2022-12-15T09:18:57.885Z,54.63
2022-12-15T09:21:29.433Z,57.00
2022-12-15T09:24:01.993Z,57.57
2022-12-15T09:26:34.620Z,64.20
2022-12-15T09:29:02.693Z,56.30
2022-12-15T09:31:33.323Z,54.40
2022-12-15T09:34:02.137Z,48.77
2022-12-15T09:36:31.983Z,51.87
2022-12-15T09:39:02.111Z,58.13
2022-12-15T09:41:39.978Z,55.10
2022-12-15T09:44:13.801Z,53.40
2022-12-15T09:47:05.027Z,40.60
2022-12-15T09:49:57.584Z,54.53
2022-12-15T09:52:27.398Z,50.63
2022-12-15T09:54:54.379Z,50.60
2022-12-15T09:57:26.017Z,47.70
2022-12-15T10:00:11.657Z,47.30
2022-12-15T10:02:45.073Z,45.10
2022-12-15T10:06:06.796Z,43.77
2022-12-15T10:08:31.298Z,44.23
2022-12-15T10:11:01.797Z,44.10
2022-12-15T10:13:44.128Z,40.27
2022-12-15T10:16:55.235Z,48.23
2022-12-15T10:20:27.031Z,46.43
2022-12-15T10:22:56.802Z,45.60
2022-12-15T10:25:30.073Z,42.67
2022-12-15T10:28:17.878Z,46.83
2022-12-15T10:31:14.462Z,53.53
2022-12-15T10:33:48.481Z,46.40
2022-12-15T10:36:18.275Z,45.77
2022-12-15T10:38:50.504Z,45.53
2022-12-15T10:41:21.554Z,50.90
2022-12-15T10:43:50.793Z,68.80
2022-12-15T10:46:22.139Z,49.70
2022-12-15T10:49:00.538Z,49.47
2022-12-15T10:51:37.128Z,53.53
2022-12-15T10:54:09.843Z,49.53
2022-12-15T10:56:57.918Z,50.20
2022-12-15T10:59:36.448Z,57.93
2022-12-15T11:02:33.202Z,49.33
2022-12-15T11:05:15.632Z,46.73
2022-12-15T11:07:48.237Z,53.90
2022-12-15T11:10:19.184Z,53.83
2022-12-15T11:13:15.723Z,53.93
2022-12-15T11:15:56.634Z,53.47
2022-12-15T11:18:48.722Z,48.83
2022-12-15T11:21:30.746Z,48.33
2022-12-15T11:24:15.890Z,45.57
2022-12-15T11:26:48.813Z,45.77
2022-12-15T11:29:21.390Z,47.43
2022-12-15T11:31:50.242Z,45.13
2022-12-15T11:34:21.150Z,44.37
2022-12-15T11:37:24.144Z,46.60
2022-12-15T11:40:02.443Z,43.47
2022-12-15T11:43:12.739Z,48.03
2022-12-15T11:46:32.743Z,48.07
2022-12-15T11:49:08.293Z,59.17
2022-12-15T11:51:41.389Z,51.10
2022-12-15T11:54:15.014Z,65.50
2022-12-15T11:56:56.618Z,63.97
2022-12-15T11:59:29.987Z,59.47
2022-12-15T12:02:34.027Z,52.90
2022-12-15T12:05:41.790Z,58.17
2022-12-15T12:08:30.540Z,52.53
2022-12-15T12:11:18.904Z,50.53
2022-12-15T12:14:11.635Z,48.80
2022-12-15T12:16:48.772Z,55.93
2022-12-15T12:19:34.681Z,56.20
2022-12-15T12:22:12.510Z,56.20
2022-12-15T12:24:50.789Z,64.17
2022-12-15T12:27:30.227Z,59.30
2022-12-15T12:30:11.894Z,56.67
2022-12-15T12:32:51.306Z,65.67
2022-12-15T12:35:42.878Z,65.37
2022-12-15T12:38:12.485Z,59.40
2022-12-15T12:41:04.546Z,63.27
2022-12-15T12:43:58.182Z,62.43
2022-12-15T12:46:42.698Z,63.23
2022-12-15T12:49:12.266Z,58.40
2022-12-15T12:51:42.110Z,60.33
2022-12-15T12:54:34.706Z,63.77
2022-12-15T12:57:22.460Z,64.40
2022-12-15T13:00:01.739Z,62.90
2022-12-15T13:02:29.390Z,63.43
2022-12-15T13:05:00.716Z,75.33
2022-12-15T13:07:40.406Z,69.43
2022-12-15T13:10:07.800Z,71.30
2022-12-15T13:12:54.008Z,68.83
2022-12-15T13:15:30.597Z,66.27
2022-12-15T13:18:18.755Z,74.27
2022-12-15T13:20:50.554Z,71.00
2022-12-15T13:23:20.303Z,67.03
2022-12-15T13:26:07.548Z,69.77
2022-12-15T13:28:35.336Z,70.87
2022-12-15T13:31:24.477Z,70.10
2022-12-15T13:33:51.359Z,72.47
2022-12-15T13:36:36.896Z,63.13
2022-12-15T13:39:12.910Z,73.13
2022-12-15T13:42:23.753Z,66.37
2022-12-15T13:44:41.864Z,67.00
2022-12-15T13:47:13.230Z,66.13
2022-12-15T13:50:01.756Z,66.63
2022-12-15T13:53:17.827Z,65.20
2022-12-15T13:55:51.146Z,67.50
2022-12-15T13:58:20.515Z,72.43
2022-12-15T14:00:51.679Z,71.13
2022-12-15T14:03:19.392Z,64.80
2022-12-15T14:05:55.193Z,65.23
2022-12-15T14:08:23.933Z,58.73
2022-12-15T14:10:59.085Z,57.70
2022-12-15T14:13:35.103Z,76.67
2022-12-15T14:16:14.655Z,67.37
2022-12-15T14:18:43.271Z,75.30
2022-12-15T14:21:24.828Z,78.67
2022-12-15T14:24:19.738Z,78.03
2022-12-15T14:26:41.219Z,86.57
2022-12-15T14:29:10.654Z,84.77
2022-12-15T14:31:37.827Z,88.17
2022-12-15T14:34:38.898Z,85.83
2022-12-15T14:37:12.316Z,88.63
2022-12-15T14:39:46.868Z,88.47
2022-12-15T14:42:25.632Z,80.33
2022-12-15T14:44:57.376Z,91.40
2022-12-15T14:47:32.422Z,91.50
2022-12-15T14:50:02.138Z,95.30
2022-12-15T14:52:40.017Z,91.97
2022-12-15T14:55:27.764Z,97.13
2022-12-15T14:57:54.556Z,86.33
2022-12-15T15:00:32.898Z,92.53
2022-12-15T15:03:39.434Z,88.00
2022-12-15T15:06:12.718Z,97.17
2022-12-15T15:08:52.615Z,87.93
2022-12-15T15:11:36.246Z,89.57
2022-12-15T15:14:08.988Z,82.80
2022-12-15T15:16:36.791Z,84.50
2022-12-15T15:19:05.472Z,96.90
2022-12-15T15:21:37.379Z,94.23
2022-12-15T15:24:24.990Z,90.80
2022-12-15T15:26:52.808Z,97.53
2022-12-15T15:29:41.250Z,92.97
2022-12-15T15:32:18.091Z,86.47
2022-12-15T15:34:48.633Z,94.97
2022-12-15T15:37:21.776Z,103.10
2022-12-15T15:39:51.167Z,94.33
2022-12-15T15:42:19.103Z,86.63
2022-12-15T15:44:47.257Z,83.60
2022-12-15T15:47:27.010Z,85.67
2022-12-15T15:49:58.339Z,90.07
2022-12-15T15:52:26.243Z,76.83
2022-12-15T15:54:53.372Z,91.97
2022-12-15T15:57:20.453Z,90.83
2022-12-15T15:59:47.953Z,78.30
2022-12-15T16:02:15.598Z,93.97
2022-12-15T16:04:44.622Z,86.73
2022-12-15T16:07:25.571Z,94.60
2022-12-15T16:09:53.460Z,67.67
2022-12-15T16:12:44.984Z,77.67
2022-12-15T16:15:18.505Z,91.63
2022-12-15T16:20:28.367Z,95.17
2022-12-15T16:22:59.606Z,89.17
2022-12-15T16:25:48.491Z,98.73
2022-12-15T16:28:23.502Z,94.07
2022-12-15T16:30:51.700Z,105.10
2022-12-15T16:33:19.287Z,92.23
2022-12-15T16:35:50.575Z,94.07
2022-12-15T16:38:24.528Z,95.57
2022-12-15T16:40:55.435Z,80.97
2022-12-15T16:43:28.956Z,95.70
2022-12-15T16:46:00.046Z,87.33
2022-12-15T16:48:27.292Z,96.20
2022-12-15T16:50:58.610Z,90.73
2022-12-15T16:53:29.715Z,97.40
2022-12-15T16:55:58.862Z,108.50
2022-12-15T16:58:27.284Z,98.60
2022-12-15T17:00:54.846Z,93.53
2022-12-15T17:03:25.888Z,93.87
2022-12-15T17:05:55.854Z,95.60
2022-12-15T17:08:46.689Z,92.93
2022-12-15T17:11:25.718Z,106.37
2022-12-15T17:13:55.893Z,93.40
2022-12-15T17:16:25.285Z,95.17
2022-12-15T17:18:52.907Z,100.60
2022-12-15T17:21:32.467Z,101.43
2022-12-15T17:24:06.711Z,117.37
2022-12-15T17:26:37.601Z,96.03
2022-12-15T17:29:23.424Z,105.77
2022-12-15T17:31:50.406Z,107.27
2022-12-15T17:34:34.744Z,92.03
2022-12-15T17:37:04.679Z,108.60
2022-12-15T17:39:34.112Z,129.83
2022-12-15T17:42:01.986Z,131.30
2022-12-15T17:44:36.293Z,97.10
2022-12-15T17:47:07.031Z,112.97
2022-12-15T17:49:37.316Z,113.20
2022-12-15T17:52:26.329Z,107.27
2022-12-15T17:54:53.666Z,101.73
2022-12-15T17:57:21.727Z,112.57
2022-12-15T17:59:49.067Z,100.27
2022-12-15T18:02:16.037Z,116.10
2022-12-15T18:04:43.533Z,116.60
2022-12-15T18:07:24.143Z,117.83
2022-12-15T18:09:53.150Z,109.03
2022-12-15T18:12:23.387Z,113.63
2022-12-15T18:14:50.721Z,105.87
2022-12-15T18:17:18.217Z,111.57
2022-12-15T18:19:46.103Z,109.00
2022-12-15T18:22:23.422Z,99.77
2022-12-15T18:24:53.431Z,43.83
2022-12-15T18:27:22.332Z,114.57
2022-12-15T18:29:49.921Z,100.13
2022-12-15T18:32:17.887Z,127.60
2022-12-15T18:34:44.888Z,107.20
2022-12-15T18:37:20.089Z,106.47
2022-12-15T18:39:47.409Z,93.40
2022-12-15T18:42:17.006Z,113.67
2022-12-15T18:44:48.176Z,105.63
2022-12-15T18:47:23.767Z,79.10
2022-12-15T18:49:50.960Z,43.13
2022-12-15T18:52:23.861Z,66.30
2022-12-15T18:54:54.312Z,118.00
2022-12-15T18:57:39.420Z,116.53
2022-12-15T19:00:15.200Z,103.93
2022-12-15T19:02:42.756Z,94.67
2022-12-15T19:05:28.009Z,129.93
2022-12-15T19:07:56.541Z,119.13
2022-12-15T19:10:27.020Z,162.07
2022-12-15T19:12:58.375Z,135.97
2022-12-15T19:15:26.009Z,116.40
2022-12-15T19:18:11.549Z,154.53
2022-12-15T19:20:57.805Z,122.07
2022-12-15T19:23:24.990Z,96.10
2022-12-15T19:25:53.775Z,120.67
2022-12-15T19:28:23.812Z,114.70
2022-12-15T19:30:52.803Z,97.33
2022-12-15T19:33:20.432Z,98.37
2022-12-15T19:35:51.424Z,89.43
2022-12-15T19:38:29.412Z,83.90
2022-12-15T19:40:57.903Z,90.73
2022-12-15T19:43:25.494Z,74.70
2022-12-15T19:45:54.658Z,41.53
2022-12-15T19:48:23.670Z,86.30
2022-12-15T19:50:54.947Z,55.77
2022-12-15T19:53:28.288Z,65.33
2022-12-15T19:55:59.042Z,61.33
2022-12-15T19:58:36.481Z,67.00
2022-12-15T20:01:10.157Z,63.53
2022-12-15T20:03:38.639Z,52.27
2022-12-15T20:06:14.411Z,55.80
2022-12-15T20:08:42.892Z,56.43
2022-12-15T20:11:28.692Z,54.83
2022-12-15T20:13:56.413Z,52.13
2022-12-15T20:16:24.895Z,62.37
2022-12-15T20:18:54.934Z,62.27
2022-12-15T20:21:32.317Z,40.53
2022-12-15T20:24:02.477Z,63.47
2022-12-15T20:26:30.546Z,34.00
2022-12-15T20:28:58.052Z,51.67
2022-12-15T20:31:26.871Z,63.70
2022-12-15T20:33:54.582Z,60.00
2022-12-15T20:36:27.734Z,65.03
2022-12-15T20:38:56.665Z,59.10
2022-12-15T20:41:28.658Z,58.50
2022-12-15T20:43:56.342Z,67.60
2022-12-15T20:46:33.152Z,55.80
2022-12-15T20:49:00.396Z,62.33
2022-12-15T20:51:32.850Z,53.23
2022-12-15T20:54:02.846Z,59.77
2022-12-15T20:56:29.966Z,56.40
2022-12-15T20:58:58.291Z,67.07
2022-12-15T21:01:28.892Z,63.40
2022-12-15T21:03:57.522Z,49.10
2022-12-15T21:06:25.947Z,56.40
2022-12-15T21:08:53.997Z,59.13
2022-12-15T21:11:26.977Z,61.67
2022-12-15T21:13:56.846Z,61.20
2022-12-15T21:16:27.736Z,58.00
2022-12-15T21:19:20.267Z,63.33
2022-12-15T21:21:46.220Z,62.40
2022-12-15T21:24:19.582Z,57.00
2022-12-15T21:26:47.054Z,63.87
2022-12-15T21:29:16.072Z,61.67
2022-12-15T21:31:44.026Z,59.83
2022-12-15T21:34:11.868Z,62.80
2022-12-15T21:36:41.790Z,62.93
2022-12-15T21:39:11.722Z,63.83
2022-12-15T21:41:43.024Z,59.90
2022-12-15T21:44:15.201Z,66.20
2022-12-15T21:46:42.127Z,65.20
2022-12-15T21:49:20.723Z,65.77
2022-12-15T21:51:52.770Z,68.80
2022-12-15T21:57:12.784Z,77.83
2022-12-15T21:59:40.624Z,74.40
2022-12-15T22:02:36.808Z,65.80
2022-12-15T22:05:04.092Z,66.03
2022-12-15T22:07:31.349Z,61.70
2022-12-15T22:09:58.479Z,66.23
2022-12-15T22:12:26.905Z,75.90
2022-12-15T22:14:54.658Z,70.30
2022-12-15T22:17:22.271Z,68.87
2022-12-15T22:19:49.951Z,72.63
2022-12-15T22:22:17.286Z,63.87
2022-12-15T22:24:44.339Z,64.47
2022-12-15T22:27:23.351Z,59.53
2022-12-15T22:29:51.780Z,74.10
2022-12-15T22:32:18.793Z,65.80
2022-12-15T22:34:45.637Z,60.13
2022-12-15T22:37:12.754Z,60.20
2022-12-15T22:39:40.939Z,62.00
2022-12-15T22:42:15.038Z,62.37
2022-12-15T22:44:42.365Z,57.47
2022-12-15T22:47:11.054Z,64.30
2022-12-15T22:49:41.172Z,54.97
2022-12-15T22:52:19.174Z,56.40
2022-12-15T22:54:46.656Z,54.30
2022-12-15T22:57:35.446Z,56.10
2022-12-15T23:00:08.188Z,46.33
2022-12-15T23:02:39.183Z,51.10
2022-12-15T23:05:07.671Z,51.83
2022-12-15T23:07:35.637Z,53.20
2022-12-15T23:10:21.743Z,51.00
2022-12-15T23:12:54.916Z,52.10
2022-12-15T23:15:41.882Z,49.27
2022-12-15T23:18:08.920Z,48.80
2022-12-15T23:20:37.215Z,48.03
2022-12-15T23:23:05.409Z,47.53
2022-12-15T23:25:32.213Z,50.17
2022-12-15T23:27:59.129Z,57.30
2022-12-15T23:30:26.305Z,52.57
2022-12-15T23:32:55.416Z,55.20
2022-12-15T23:35:22.833Z,55.13
2022-12-15T23:37:49.593Z,52.03
2022-12-15T23:40:22.278Z,52.97
2022-12-15T23:42:49.975Z,51.97
2022-12-15T23:45:18.279Z,56.10
2022-12-15T23:47:45.121Z,54.30
2022-12-15T23:50:12.025Z,54.87
2022-12-15T23:52:39.053Z,54.17
2022-12-15T23:55:10.397Z,58.33
2022-12-15T23:57:38.608Z,57.77
